sensor_id;sensor_type;location;lat;lon;timestamp;temperature;humidity
32706;DHT22;19094;50.972;3.538;2022-10-17T00:01:14;19.30;68.90
32706;DHT22;19094;50.972;3.538;2022-10-17T00:03:40;19.30;68.90
32706;DHT22;19094;50.972;3.538;2022-10-17T00:06:09;19.30;68.70
32706;DHT22;19094;50.972;3.538;2022-10-17T00:08:36;19.30;68.90
32706;DHT22;19094;50.972;3.538;2022-10-17T00:11:05;19.30;68.90
32706;DHT22;19094;50.972;3.538;2022-10-17T00:13:32;19.30;68.80
32706;DHT22;19094;50.972;3.538;2022-10-17T00:15:58;19.30;68.90
32706;DHT22;19094;50.972;3.538;2022-10-17T00:18:26;19.30;68.90
32706;DHT22;19094;50.972;3.538;2022-10-17T00:20:52;19.30;68.90
32706;DHT22;19094;50.972;3.538;2022-10-17T00:23:18;19.30;69.30
32706;DHT22;19094;50.972;3.538;2022-10-17T00:25:44;19.30;69.30
32706;DHT22;19094;50.972;3.538;2022-10-17T00:28:11;19.30;68.90
32706;DHT22;19094;50.972;3.538;2022-10-17T00:30:37;19.30;68.80
32706;DHT22;19094;50.972;3.538;2022-10-17T00:33:03;19.30;69.60
32706;DHT22;19094;50.972;3.538;2022-10-17T00:35:30;19.30;69.00
32706;DHT22;19094;50.972;3.538;2022-10-17T00:37:55;19.30;69.00
32706;DHT22;19094;50.972;3.538;2022-10-17T00:40:21;19.20;69.10
32706;DHT22;19094;50.972;3.538;2022-10-17T00:42:47;19.20;69.30
32706;DHT22;19094;50.972;3.538;2022-10-17T00:45:18;19.20;69.20
32706;DHT22;19094;50.972;3.538;2022-10-17T00:47:47;19.30;69.30
32706;DHT22;19094;50.972;3.538;2022-10-17T00:50:14;19.20;69.30
32706;DHT22;19094;50.972;3.538;2022-10-17T00:52:40;19.20;69.20
32706;DHT22;19094;50.972;3.538;2022-10-17T00:55:08;19.20;69.20
32706;DHT22;19094;50.972;3.538;2022-10-17T00:57:35;19.20;69.40
32706;DHT22;19094;50.972;3.538;2022-10-17T01:00:07;19.20;69.50
32706;DHT22;19094;50.972;3.538;2022-10-17T01:02:35;19.30;69.50
32706;DHT22;19094;50.972;3.538;2022-10-17T01:05:02;19.20;69.70
32706;DHT22;19094;50.972;3.538;2022-10-17T01:07:28;19.20;69.70
32706;DHT22;19094;50.972;3.538;2022-10-17T01:09:55;19.20;69.70
32706;DHT22;19094;50.972;3.538;2022-10-17T01:12:27;19.20;69.90
32706;DHT22;19094;50.972;3.538;2022-10-17T01:15:11;19.30;70.10
32706;DHT22;19094;50.972;3.538;2022-10-17T01:20:58;19.30;71.00
32706;DHT22;19094;50.972;3.538;2022-10-17T01:31:52;19.30;70.40
32706;DHT22;19094;50.972;3.538;2022-10-17T01:34:34;19.40;70.70
32706;DHT22;19094;50.972;3.538;2022-10-17T01:37:12;19.40;70.50
32706;DHT22;19094;50.972;3.538;2022-10-17T01:39:51;19.40;70.40
32706;DHT22;19094;50.972;3.538;2022-10-17T01:42:32;19.40;70.70
32706;DHT22;19094;50.972;3.538;2022-10-17T01:45:09;19.40;70.50
32706;DHT22;19094;50.972;3.538;2022-10-17T01:47:37;19.40;70.50
32706;DHT22;19094;50.972;3.538;2022-10-17T01:50:24;19.40;70.50
32706;DHT22;19094;50.972;3.538;2022-10-17T01:53:00;19.40;70.60
32706;DHT22;19094;50.972;3.538;2022-10-17T01:55:35;19.40;70.70
32706;DHT22;19094;50.972;3.538;2022-10-17T01:58:19;19.40;70.50
32706;DHT22;19094;50.972;3.538;2022-10-17T02:00:49;19.40;70.80
32706;DHT22;19094;50.972;3.538;2022-10-17T02:03:18;19.50;70.60
32706;DHT22;19094;50.972;3.538;2022-10-17T02:05:45;19.50;70.90
32706;DHT22;19094;50.972;3.538;2022-10-17T02:08:11;19.50;70.70
32706;DHT22;19094;50.972;3.538;2022-10-17T02:21:29;19.50;70.90
32706;DHT22;19094;50.972;3.538;2022-10-17T02:26:34;19.40;71.10
32706;DHT22;19094;50.972;3.538;2022-10-17T02:29:19;19.50;71.00
32706;DHT22;19094;50.972;3.538;2022-10-17T02:31:55;19.50;72.60
32706;DHT22;19094;50.972;3.538;2022-10-17T02:34:38;19.50;70.60
32706;DHT22;19094;50.972;3.538;2022-10-17T02:37:07;19.50;71.60
32706;DHT22;19094;50.972;3.538;2022-10-17T02:39:35;19.50;70.80
32706;DHT22;19094;50.972;3.538;2022-10-17T02:42:05;19.50;71.00
32706;DHT22;19094;50.972;3.538;2022-10-17T02:44:32;19.50;71.10
32706;DHT22;19094;50.972;3.538;2022-10-17T02:47:25;19.50;71.20
32706;DHT22;19094;50.972;3.538;2022-10-17T02:49:54;19.50;71.90
32706;DHT22;19094;50.972;3.538;2022-10-17T02:55:00;19.60;71.60
32706;DHT22;19094;50.972;3.538;2022-10-17T02:57:33;19.50;71.80
32706;DHT22;19094;50.972;3.538;2022-10-17T03:00:02;19.50;71.30
32706;DHT22;19094;50.972;3.538;2022-10-17T03:02:41;19.50;70.70
32706;DHT22;19094;50.972;3.538;2022-10-17T03:05:09;19.50;71.10
32706;DHT22;19094;50.972;3.538;2022-10-17T03:07:35;19.50;71.00
32706;DHT22;19094;50.972;3.538;2022-10-17T03:10:00;19.60;71.50
32706;DHT22;19094;50.972;3.538;2022-10-17T03:12:26;19.60;71.30
32706;DHT22;19094;50.972;3.538;2022-10-17T03:14:53;19.60;71.30
32706;DHT22;19094;50.972;3.538;2022-10-17T03:17:18;19.60;71.20
32706;DHT22;19094;50.972;3.538;2022-10-17T03:19:44;19.60;71.30
32706;DHT22;19094;50.972;3.538;2022-10-17T03:22:10;19.60;71.40
32706;DHT22;19094;50.972;3.538;2022-10-17T03:24:35;19.60;71.00
32706;DHT22;19094;50.972;3.538;2022-10-17T03:27:01;19.70;71.40
32706;DHT22;19094;50.972;3.538;2022-10-17T03:29:27;19.70;71.40
32706;DHT22;19094;50.972;3.538;2022-10-17T03:31:52;19.70;71.10
32706;DHT22;19094;50.972;3.538;2022-10-17T03:34:18;19.60;71.20
32706;DHT22;19094;50.972;3.538;2022-10-17T03:36:44;19.70;71.40
32706;DHT22;19094;50.972;3.538;2022-10-17T03:39:10;19.70;71.20
32706;DHT22;19094;50.972;3.538;2022-10-17T03:41:36;19.70;71.70
32706;DHT22;19094;50.972;3.538;2022-10-17T03:44:02;19.70;71.50
32706;DHT22;19094;50.972;3.538;2022-10-17T03:46:29;19.70;70.90
32706;DHT22;19094;50.972;3.538;2022-10-17T03:48:55;19.70;71.30
32706;DHT22;19094;50.972;3.538;2022-10-17T03:51:21;19.70;71.60
32706;DHT22;19094;50.972;3.538;2022-10-17T03:53:46;19.70;71.40
32706;DHT22;19094;50.972;3.538;2022-10-17T03:56:24;19.70;71.10
32706;DHT22;19094;50.972;3.538;2022-10-17T03:58:50;19.70;71.30
32706;DHT22;19094;50.972;3.538;2022-10-17T04:01:17;19.70;71.40
32706;DHT22;19094;50.972;3.538;2022-10-17T04:03:43;19.70;71.30
32706;DHT22;19094;50.972;3.538;2022-10-17T04:06:12;19.70;71.40
32706;DHT22;19094;50.972;3.538;2022-10-17T04:08:38;19.70;71.30
32706;DHT22;19094;50.972;3.538;2022-10-17T04:11:05;19.70;71.20
32706;DHT22;19094;50.972;3.538;2022-10-17T04:13:32;19.70;71.00
32706;DHT22;19094;50.972;3.538;2022-10-17T04:16:04;19.70;70.90
32706;DHT22;19094;50.972;3.538;2022-10-17T04:18:30;19.70;71.40
32706;DHT22;19094;50.972;3.538;2022-10-17T04:20:57;19.70;71.30
32706;DHT22;19094;50.972;3.538;2022-10-17T04:23:25;19.60;71.30
32706;DHT22;19094;50.972;3.538;2022-10-17T04:25:58;19.70;71.10
32706;DHT22;19094;50.972;3.538;2022-10-17T04:28:25;19.70;71.10
32706;DHT22;19094;50.972;3.538;2022-10-17T04:31:01;19.70;71.30
32706;DHT22;19094;50.972;3.538;2022-10-17T04:33:27;19.70;71.30
32706;DHT22;19094;50.972;3.538;2022-10-17T04:36:01;19.60;71.40
32706;DHT22;19094;50.972;3.538;2022-10-17T04:38:27;19.60;71.60
32706;DHT22;19094;50.972;3.538;2022-10-17T04:40:55;19.60;71.50
32706;DHT22;19094;50.972;3.538;2022-10-17T04:43:21;19.60;71.20
32706;DHT22;19094;50.972;3.538;2022-10-17T04:45:47;19.60;71.20
32706;DHT22;19094;50.972;3.538;2022-10-17T04:48:12;19.60;71.10
32706;DHT22;19094;50.972;3.538;2022-10-17T04:50:39;19.60;71.10
32706;DHT22;19094;50.972;3.538;2022-10-17T04:53:06;19.70;71.50
32706;DHT22;19094;50.972;3.538;2022-10-17T04:55:36;19.60;71.60
32706;DHT22;19094;50.972;3.538;2022-10-17T04:58:02;19.60;71.60
32706;DHT22;19094;50.972;3.538;2022-10-17T05:00:27;19.60;71.60
32706;DHT22;19094;50.972;3.538;2022-10-17T05:02:53;19.70;71.60
32706;DHT22;19094;50.972;3.538;2022-10-17T05:05:19;19.70;71.60
32706;DHT22;19094;50.972;3.538;2022-10-17T05:07:44;19.70;71.60
32706;DHT22;19094;50.972;3.538;2022-10-17T05:10:10;19.70;71.50
32706;DHT22;19094;50.972;3.538;2022-10-17T05:12:36;19.70;71.40
32706;DHT22;19094;50.972;3.538;2022-10-17T05:15:03;19.70;71.60
32706;DHT22;19094;50.972;3.538;2022-10-17T05:17:28;19.70;71.30
32706;DHT22;19094;50.972;3.538;2022-10-17T05:19:54;19.70;71.40
32706;DHT22;19094;50.972;3.538;2022-10-17T05:22:20;19.70;71.50
32706;DHT22;19094;50.972;3.538;2022-10-17T05:24:45;19.70;71.40
32706;DHT22;19094;50.972;3.538;2022-10-17T05:27:11;19.70;71.60
32706;DHT22;19094;50.972;3.538;2022-10-17T05:29:39;19.70;71.60
32706;DHT22;19094;50.972;3.538;2022-10-17T05:32:05;19.70;71.50
32706;DHT22;19094;50.972;3.538;2022-10-17T05:34:30;19.70;71.40
32706;DHT22;19094;50.972;3.538;2022-10-17T05:36:59;19.70;71.60
32706;DHT22;19094;50.972;3.538;2022-10-17T05:39:24;19.70;71.60
32706;DHT22;19094;50.972;3.538;2022-10-17T05:41:50;19.70;72.10
32706;DHT22;19094;50.972;3.538;2022-10-17T05:44:16;19.80;72.50
32706;DHT22;19094;50.972;3.538;2022-10-17T05:46:42;19.70;71.60
32706;DHT22;19094;50.972;3.538;2022-10-17T05:49:09;19.70;72.20
32706;DHT22;19094;50.972;3.538;2022-10-17T05:51:34;19.70;72.10
32706;DHT22;19094;50.972;3.538;2022-10-17T05:54:04;19.80;72.20
32706;DHT22;19094;50.972;3.538;2022-10-17T05:56:30;19.80;71.90
32706;DHT22;19094;50.972;3.538;2022-10-17T05:58:56;19.80;72.00
32706;DHT22;19094;50.972;3.538;2022-10-17T06:01:21;19.80;72.30
32706;DHT22;19094;50.972;3.538;2022-10-17T06:03:49;19.80;72.90
32706;DHT22;19094;50.972;3.538;2022-10-17T06:06:16;19.80;72.20
32706;DHT22;19094;50.972;3.538;2022-10-17T06:08:42;19.80;72.70
32706;DHT22;19094;50.972;3.538;2022-10-17T06:11:08;19.70;72.30
32706;DHT22;19094;50.972;3.538;2022-10-17T06:13:34;19.70;72.00
32706;DHT22;19094;50.972;3.538;2022-10-17T06:16:00;19.70;72.80
32706;DHT22;19094;50.972;3.538;2022-10-17T06:18:27;19.80;73.70
32706;DHT22;19094;50.972;3.538;2022-10-17T06:20:53;19.80;74.00
32706;DHT22;19094;50.972;3.538;2022-10-17T06:23:19;19.80;73.40
32706;DHT22;19094;50.972;3.538;2022-10-17T06:25:45;19.80;74.00
32706;DHT22;19094;50.972;3.538;2022-10-17T06:28:11;19.80;72.80
32706;DHT22;19094;50.972;3.538;2022-10-17T06:30:38;19.70;73.90
32706;DHT22;19094;50.972;3.538;2022-10-17T06:33:04;19.70;73.60
32706;DHT22;19094;50.972;3.538;2022-10-17T06:35:30;19.70;74.30
32706;DHT22;19094;50.972;3.538;2022-10-17T06:37:56;19.70;74.10
32706;DHT22;19094;50.972;3.538;2022-10-17T06:40:22;19.70;73.70
32706;DHT22;19094;50.972;3.538;2022-10-17T06:42:47;19.70;73.50
32706;DHT22;19094;50.972;3.538;2022-10-17T06:45:13;19.70;73.10
32706;DHT22;19094;50.972;3.538;2022-10-17T06:47:39;19.60;73.30
32706;DHT22;19094;50.972;3.538;2022-10-17T06:50:07;19.70;73.90
32706;DHT22;19094;50.972;3.538;2022-10-17T06:52:32;19.70;74.00
32706;DHT22;19094;50.972;3.538;2022-10-17T06:54:58;19.70;74.40
32706;DHT22;19094;50.972;3.538;2022-10-17T06:57:26;19.70;73.90
32706;DHT22;19094;50.972;3.538;2022-10-17T06:59:51;19.60;74.00
32706;DHT22;19094;50.972;3.538;2022-10-17T07:02:18;19.70;74.20
32706;DHT22;19094;50.972;3.538;2022-10-17T07:04:45;19.70;74.10
32706;DHT22;19094;50.972;3.538;2022-10-17T07:07:11;19.70;74.60
32706;DHT22;19094;50.972;3.538;2022-10-17T07:09:37;19.70;74.40
32706;DHT22;19094;50.972;3.538;2022-10-17T07:12:03;19.70;74.10
32706;DHT22;19094;50.972;3.538;2022-10-17T07:14:32;19.60;74.50
32706;DHT22;19094;50.972;3.538;2022-10-17T07:16:58;19.60;74.80
32706;DHT22;19094;50.972;3.538;2022-10-17T07:19:24;19.60;74.50
32706;DHT22;19094;50.972;3.538;2022-10-17T07:21:53;19.50;74.60
32706;DHT22;19094;50.972;3.538;2022-10-17T07:24:18;19.50;74.60
32706;DHT22;19094;50.972;3.538;2022-10-17T07:26:44;19.50;74.90
32706;DHT22;19094;50.972;3.538;2022-10-17T07:29:10;19.50;75.40
32706;DHT22;19094;50.972;3.538;2022-10-17T07:31:36;19.50;75.70
32706;DHT22;19094;50.972;3.538;2022-10-17T07:34:02;19.50;75.40
32706;DHT22;19094;50.972;3.538;2022-10-17T07:36:28;19.40;75.30
32706;DHT22;19094;50.972;3.538;2022-10-17T07:38:54;19.30;75.40
32706;DHT22;19094;50.972;3.538;2022-10-17T07:41:20;19.40;75.70
32706;DHT22;19094;50.972;3.538;2022-10-17T07:43:45;19.30;75.70
32706;DHT22;19094;50.972;3.538;2022-10-17T07:46:12;19.30;75.60
32706;DHT22;19094;50.972;3.538;2022-10-17T07:48:38;19.40;76.00
32706;DHT22;19094;50.972;3.538;2022-10-17T07:51:06;19.40;75.80
32706;DHT22;19094;50.972;3.538;2022-10-17T07:53:36;19.40;75.40
32706;DHT22;19094;50.972;3.538;2022-10-17T07:56:07;19.40;75.50
32706;DHT22;19094;50.972;3.538;2022-10-17T07:58:34;19.40;75.80
32706;DHT22;19094;50.972;3.538;2022-10-17T08:01:04;19.40;75.90
32706;DHT22;19094;50.972;3.538;2022-10-17T08:03:30;19.30;75.90
32706;DHT22;19094;50.972;3.538;2022-10-17T08:06:00;19.30;75.60
32706;DHT22;19094;50.972;3.538;2022-10-17T08:08:26;19.30;76.10
32706;DHT22;19094;50.972;3.538;2022-10-17T08:10:53;19.30;75.90
32706;DHT22;19094;50.972;3.538;2022-10-17T08:13:20;19.30;76.00
32706;DHT22;19094;50.972;3.538;2022-10-17T08:15:46;19.30;75.60
32706;DHT22;19094;50.972;3.538;2022-10-17T08:18:13;19.30;76.30
32706;DHT22;19094;50.972;3.538;2022-10-17T08:20:40;19.30;77.20
32706;DHT22;19094;50.972;3.538;2022-10-17T08:23:06;19.30;76.60
32706;DHT22;19094;50.972;3.538;2022-10-17T08:25:32;19.30;76.70
32706;DHT22;19094;50.972;3.538;2022-10-17T08:27:58;19.30;76.40
32706;DHT22;19094;50.972;3.538;2022-10-17T08:30:24;19.30;76.20
32706;DHT22;19094;50.972;3.538;2022-10-17T08:32:50;19.20;76.00
32706;DHT22;19094;50.972;3.538;2022-10-17T08:35:16;19.30;76.60
32706;DHT22;19094;50.972;3.538;2022-10-17T08:37:41;19.30;76.20
32706;DHT22;19094;50.972;3.538;2022-10-17T08:40:16;19.30;76.20
32706;DHT22;19094;50.972;3.538;2022-10-17T08:42:58;19.30;76.40
32706;DHT22;19094;50.972;3.538;2022-10-17T08:45:27;19.30;76.70
32706;DHT22;19094;50.972;3.538;2022-10-17T08:47:59;19.30;76.60
32706;DHT22;19094;50.972;3.538;2022-10-17T08:53:13;19.30;76.40
32706;DHT22;19094;50.972;3.538;2022-10-17T08:55:46;19.30;76.10
32706;DHT22;19094;50.972;3.538;2022-10-17T08:58:23;19.30;76.20
32706;DHT22;19094;50.972;3.538;2022-10-17T09:06:27;19.40;77.30
32706;DHT22;19094;50.972;3.538;2022-10-17T09:12:01;19.40;77.40
32706;DHT22;19094;50.972;3.538;2022-10-17T09:14:56;19.30;77.30
32706;DHT22;19094;50.972;3.538;2022-10-17T09:17:41;19.40;77.10
32706;DHT22;19094;50.972;3.538;2022-10-17T09:20:13;19.30;77.40
32706;DHT22;19094;50.972;3.538;2022-10-17T09:22:52;19.30;76.40
32706;DHT22;19094;50.972;3.538;2022-10-17T09:25:22;19.30;76.70
32706;DHT22;19094;50.972;3.538;2022-10-17T09:28:09;19.30;76.90
32706;DHT22;19094;50.972;3.538;2022-10-17T09:33:15;19.40;77.00
32706;DHT22;19094;50.972;3.538;2022-10-17T09:35:41;19.40;77.00
32706;DHT22;19094;50.972;3.538;2022-10-17T09:38:16;19.40;76.90
32706;DHT22;19094;50.972;3.538;2022-10-17T09:40:43;19.40;76.80
32706;DHT22;19094;50.972;3.538;2022-10-17T09:43:12;19.40;76.80
32706;DHT22;19094;50.972;3.538;2022-10-17T09:46:29;19.40;76.70
32706;DHT22;19094;50.972;3.538;2022-10-17T09:48:41;19.40;76.80
32706;DHT22;19094;50.972;3.538;2022-10-17T09:51:11;19.40;76.90
32706;DHT22;19094;50.972;3.538;2022-10-17T09:53:40;19.40;77.00
32706;DHT22;19094;50.972;3.538;2022-10-17T09:56:15;19.40;76.60
32706;DHT22;19094;50.972;3.538;2022-10-17T09:58:43;19.40;77.00
32706;DHT22;19094;50.972;3.538;2022-10-17T10:03:48;19.40;76.80
32706;DHT22;19094;50.972;3.538;2022-10-17T10:06:32;19.40;76.70
32706;DHT22;19094;50.972;3.538;2022-10-17T10:08:58;19.40;76.60
32706;DHT22;19094;50.972;3.538;2022-10-17T10:11:46;19.40;76.90
32706;DHT22;19094;50.972;3.538;2022-10-17T10:14:35;19.50;78.30
32706;DHT22;19094;50.972;3.538;2022-10-17T10:17:03;19.50;78.70
32706;DHT22;19094;50.972;3.538;2022-10-17T10:19:37;19.50;76.90
32706;DHT22;19094;50.972;3.538;2022-10-17T10:22:05;19.50;79.20
32706;DHT22;19094;50.972;3.538;2022-10-17T10:24:31;19.60;80.30
32706;DHT22;19094;50.972;3.538;2022-10-17T10:27:03;19.60;80.20
32706;DHT22;19094;50.972;3.538;2022-10-17T10:29:35;19.60;81.10
32706;DHT22;19094;50.972;3.538;2022-10-17T10:32:27;19.60;80.40
32706;DHT22;19094;50.972;3.538;2022-10-17T10:37:40;19.70;80.60
32706;DHT22;19094;50.972;3.538;2022-10-17T10:40:15;19.80;80.00
32706;DHT22;19094;50.972;3.538;2022-10-17T10:42:46;19.90;80.10
32706;DHT22;19094;50.972;3.538;2022-10-17T10:45:20;19.90;80.00
32706;DHT22;19094;50.972;3.538;2022-10-17T10:50:58;20.00;79.60
32706;DHT22;19094;50.972;3.538;2022-10-17T10:53:42;20.10;79.50
32706;DHT22;19094;50.972;3.538;2022-10-17T10:56:20;20.20;79.20
32706;DHT22;19094;50.972;3.538;2022-10-17T10:58:54;20.20;78.50
32706;DHT22;19094;50.972;3.538;2022-10-17T11:04:40;20.20;79.50
32706;DHT22;19094;50.972;3.538;2022-10-17T11:07:14;20.30;79.40
32706;DHT22;19094;50.972;3.538;2022-10-17T11:09:55;20.30;77.20
32706;DHT22;19094;50.972;3.538;2022-10-17T11:15:41;20.40;77.20
32706;DHT22;19094;50.972;3.538;2022-10-17T11:17:49;20.40;77.30
32706;DHT22;19094;50.972;3.538;2022-10-17T11:20:19;20.40;75.80
32706;DHT22;19094;50.972;3.538;2022-10-17T11:22:48;20.40;76.60
32706;DHT22;19094;50.972;3.538;2022-10-17T11:25:37;20.40;76.50
32706;DHT22;19094;50.972;3.538;2022-10-17T11:28:14;20.40;77.00
32706;DHT22;19094;50.972;3.538;2022-10-17T11:31:12;20.30;76.00
32706;DHT22;19094;50.972;3.538;2022-10-17T11:33:49;20.40;76.80
32706;DHT22;19094;50.972;3.538;2022-10-17T11:36:21;20.40;75.40
32706;DHT22;19094;50.972;3.538;2022-10-17T11:39:00;20.40;74.90
32706;DHT22;19094;50.972;3.538;2022-10-17T11:41:41;20.40;75.80
32706;DHT22;19094;50.972;3.538;2022-10-17T11:44:34;20.40;76.00
32706;DHT22;19094;50.972;3.538;2022-10-17T11:47:28;20.40;76.50
32706;DHT22;19094;50.972;3.538;2022-10-17T11:52:36;20.30;75.50
32706;DHT22;19094;50.972;3.538;2022-10-17T11:55:10;20.30;75.40
32706;DHT22;19094;50.972;3.538;2022-10-17T11:57:54;20.30;75.10
32706;DHT22;19094;50.972;3.538;2022-10-17T12:00:33;20.30;75.40
32706;DHT22;19094;50.972;3.538;2022-10-17T12:03:16;20.30;75.00
32706;DHT22;19094;50.972;3.538;2022-10-17T12:09:01;20.30;75.80
32706;DHT22;19094;50.972;3.538;2022-10-17T12:11:48;20.30;75.60
32706;DHT22;19094;50.972;3.538;2022-10-17T12:14:36;20.30;75.90
32706;DHT22;19094;50.972;3.538;2022-10-17T12:17:04;20.30;75.80
32706;DHT22;19094;50.972;3.538;2022-10-17T12:19:37;20.30;75.60
32706;DHT22;19094;50.972;3.538;2022-10-17T12:25:03;20.30;74.90
32706;DHT22;19094;50.972;3.538;2022-10-17T12:27:42;20.30;75.50
32706;DHT22;19094;50.972;3.538;2022-10-17T12:30:26;20.30;74.40
32706;DHT22;19094;50.972;3.538;2022-10-17T12:33:20;20.30;74.40
32706;DHT22;19094;50.972;3.538;2022-10-17T12:35:51;20.30;74.20
32706;DHT22;19094;50.972;3.538;2022-10-17T12:38:37;20.30;74.00
32706;DHT22;19094;50.972;3.538;2022-10-17T12:41:04;20.30;73.90
32706;DHT22;19094;50.972;3.538;2022-10-17T12:45:57;20.30;73.40
32706;DHT22;19094;50.972;3.538;2022-10-17T12:51:08;20.30;73.40
32706;DHT22;19094;50.972;3.538;2022-10-17T12:56:36;20.30;73.60
32706;DHT22;19094;50.972;3.538;2022-10-17T12:59:11;20.30;72.90
32706;DHT22;19094;50.972;3.538;2022-10-17T13:01:44;20.40;73.50
32706;DHT22;19094;50.972;3.538;2022-10-17T13:04:11;20.40;73.10
32706;DHT22;19094;50.972;3.538;2022-10-17T13:06:45;20.40;72.80
32706;DHT22;19094;50.972;3.538;2022-10-17T13:09:30;20.40;73.20
32706;DHT22;19094;50.972;3.538;2022-10-17T13:11:59;20.40;72.70
32706;DHT22;19094;50.972;3.538;2022-10-17T13:14:27;20.40;72.80
32706;DHT22;19094;50.972;3.538;2022-10-17T13:16:57;20.40;72.80
32706;DHT22;19094;50.972;3.538;2022-10-17T13:19:25;20.40;72.90
32706;DHT22;19094;50.972;3.538;2022-10-17T13:21:56;20.40;72.90
32706;DHT22;19094;50.972;3.538;2022-10-17T13:26:58;20.50;72.10
32706;DHT22;19094;50.972;3.538;2022-10-17T13:29:24;20.60;72.80
32706;DHT22;19094;50.972;3.538;2022-10-17T13:31:58;20.60;72.00
32706;DHT22;19094;50.972;3.538;2022-10-17T13:34:26;20.60;71.70
32706;DHT22;19094;50.972;3.538;2022-10-17T13:37:04;20.70;72.00
32706;DHT22;19094;50.972;3.538;2022-10-17T13:39:44;20.70;72.40
32706;DHT22;19094;50.972;3.538;2022-10-17T13:42:27;20.70;71.20
32706;DHT22;19094;50.972;3.538;2022-10-17T13:44:53;20.70;71.70
32706;DHT22;19094;50.972;3.538;2022-10-17T13:47:21;20.80;71.00
32706;DHT22;19094;50.972;3.538;2022-10-17T13:49:48;20.80;71.40
32706;DHT22;19094;50.972;3.538;2022-10-17T13:52:18;20.80;70.90
32706;DHT22;19094;50.972;3.538;2022-10-17T13:54:46;20.80;71.10
32706;DHT22;19094;50.972;3.538;2022-10-17T13:57:22;20.80;71.40
32706;DHT22;19094;50.972;3.538;2022-10-17T13:59:53;20.80;71.00
32706;DHT22;19094;50.972;3.538;2022-10-17T14:02:24;20.80;70.70
32706;DHT22;19094;50.972;3.538;2022-10-17T14:07:59;20.80;70.70
32706;DHT22;19094;50.972;3.538;2022-10-17T14:10:33;20.70;71.50
32706;DHT22;19094;50.972;3.538;2022-10-17T14:13:00;20.80;71.90
32706;DHT22;19094;50.972;3.538;2022-10-17T14:15:31;20.80;70.90
32706;DHT22;19094;50.972;3.538;2022-10-17T14:18:06;20.70;70.90
32706;DHT22;19094;50.972;3.538;2022-10-17T14:20:36;20.70;71.60
32706;DHT22;19094;50.972;3.538;2022-10-17T14:23:02;20.70;71.30
32706;DHT22;19094;50.972;3.538;2022-10-17T14:25:36;20.70;70.80
32706;DHT22;19094;50.972;3.538;2022-10-17T14:30:37;20.70;71.70
32706;DHT22;19094;50.972;3.538;2022-10-17T14:33:07;20.70;71.60
32706;DHT22;19094;50.972;3.538;2022-10-17T14:35:33;20.70;72.10
32706;DHT22;19094;50.972;3.538;2022-10-17T14:38:04;20.70;71.30
32706;DHT22;19094;50.972;3.538;2022-10-17T14:40:31;20.70;71.70
32706;DHT22;19094;50.972;3.538;2022-10-17T14:43:02;20.70;71.40
32706;DHT22;19094;50.972;3.538;2022-10-17T14:45:34;20.70;70.90
32706;DHT22;19094;50.972;3.538;2022-10-17T14:48:12;20.70;71.20
32706;DHT22;19094;50.972;3.538;2022-10-17T14:50:39;20.70;71.00
32706;DHT22;19094;50.972;3.538;2022-10-17T14:55:36;20.60;71.50
32706;DHT22;19094;50.972;3.538;2022-10-17T14:58:23;20.60;71.60
32706;DHT22;19094;50.972;3.538;2022-10-17T15:00:49;20.60;72.00
32706;DHT22;19094;50.972;3.538;2022-10-17T15:03:15;20.60;71.50
32706;DHT22;19094;50.972;3.538;2022-10-17T15:05:47;20.50;71.60
32706;DHT22;19094;50.972;3.538;2022-10-17T15:08:14;20.50;71.60
32706;DHT22;19094;50.972;3.538;2022-10-17T15:10:40;20.50;71.70
32706;DHT22;19094;50.972;3.538;2022-10-17T15:13:07;20.50;71.60
32706;DHT22;19094;50.972;3.538;2022-10-17T15:15:33;20.50;71.40
32706;DHT22;19094;50.972;3.538;2022-10-17T15:17:59;20.50;72.10
32706;DHT22;19094;50.972;3.538;2022-10-17T15:20:26;20.50;71.90
32706;DHT22;19094;50.972;3.538;2022-10-17T15:22:55;20.50;71.90
32706;DHT22;19094;50.972;3.538;2022-10-17T15:25:21;20.50;71.90
32706;DHT22;19094;50.972;3.538;2022-10-17T15:27:47;20.50;71.60
32706;DHT22;19094;50.972;3.538;2022-10-17T15:30:31;20.50;71.70
32706;DHT22;19094;50.972;3.538;2022-10-17T15:32:57;20.50;72.10
32706;DHT22;19094;50.972;3.538;2022-10-17T15:35:24;20.50;72.00
32706;DHT22;19094;50.972;3.538;2022-10-17T15:37:50;20.50;71.80
32706;DHT22;19094;50.972;3.538;2022-10-17T15:40:19;20.50;71.80
32706;DHT22;19094;50.972;3.538;2022-10-17T15:42:45;20.50;71.90
32706;DHT22;19094;50.972;3.538;2022-10-17T15:45:12;20.40;72.00
32706;DHT22;19094;50.972;3.538;2022-10-17T15:47:41;20.40;72.50
32706;DHT22;19094;50.972;3.538;2022-10-17T15:50:12;20.40;72.50
32706;DHT22;19094;50.972;3.538;2022-10-17T15:52:38;20.40;72.20
32706;DHT22;19094;50.972;3.538;2022-10-17T15:55:04;20.40;72.40
32706;DHT22;19094;50.972;3.538;2022-10-17T15:57:33;20.30;72.40
32706;DHT22;19094;50.972;3.538;2022-10-17T16:00:00;20.30;72.80
32706;DHT22;19094;50.972;3.538;2022-10-17T16:02:26;20.40;73.20
32706;DHT22;19094;50.972;3.538;2022-10-17T16:04:52;20.40;72.80
32706;DHT22;19094;50.972;3.538;2022-10-17T16:07:18;20.40;73.20
32706;DHT22;19094;50.972;3.538;2022-10-17T16:09:45;20.30;73.10
32706;DHT22;19094;50.972;3.538;2022-10-17T16:12:30;20.30;73.40
32706;DHT22;19094;50.972;3.538;2022-10-17T16:15:01;20.30;73.30
32706;DHT22;19094;50.972;3.538;2022-10-17T16:17:27;20.30;73.70
32706;DHT22;19094;50.972;3.538;2022-10-17T16:19:53;20.30;74.10
32706;DHT22;19094;50.972;3.538;2022-10-17T16:22:32;20.30;73.90
32706;DHT22;19094;50.972;3.538;2022-10-17T16:25:02;20.30;74.30
32706;DHT22;19094;50.972;3.538;2022-10-17T16:27:35;20.30;74.30
32706;DHT22;19094;50.972;3.538;2022-10-17T16:30:02;20.30;74.40
32706;DHT22;19094;50.972;3.538;2022-10-17T16:32:28;20.30;74.20
32706;DHT22;19094;50.972;3.538;2022-10-17T16:34:53;20.30;74.20
32706;DHT22;19094;50.972;3.538;2022-10-17T16:37:19;20.30;74.20
32706;DHT22;19094;50.972;3.538;2022-10-17T16:39:45;20.20;74.30
32706;DHT22;19094;50.972;3.538;2022-10-17T16:42:17;20.20;74.60
32706;DHT22;19094;50.972;3.538;2022-10-17T16:44:43;20.30;75.00
32706;DHT22;19094;50.972;3.538;2022-10-17T16:47:08;20.20;74.10
32706;DHT22;19094;50.972;3.538;2022-10-17T16:49:34;20.20;71.50
32706;DHT22;19094;50.972;3.538;2022-10-17T16:52:00;20.20;74.00
32706;DHT22;19094;50.972;3.538;2022-10-17T16:54:25;20.30;74.00
32706;DHT22;19094;50.972;3.538;2022-10-17T16:56:51;20.30;74.20
32706;DHT22;19094;50.972;3.538;2022-10-17T16:59:17;20.30;73.50
32706;DHT22;19094;50.972;3.538;2022-10-17T17:01:42;20.20;72.90
32706;DHT22;19094;50.972;3.538;2022-10-17T17:04:08;20.20;73.10
32706;DHT22;19094;50.972;3.538;2022-10-17T17:06:35;20.30;73.00
32706;DHT22;19094;50.972;3.538;2022-10-17T17:09:02;20.30;73.00
32706;DHT22;19094;50.972;3.538;2022-10-17T17:11:27;20.30;73.00